Time;durP1;ratioP1;P1;durP2;ratioP2;P2;SDS_P1;SDS_P2;PMS_P1;PMS_P2;Temp;Humidity;BMP_temperature;BMP_pressure;BME280_temperature;BME280_humidity;BME280_pressure;Samples;Min_cycle;Max_cycle;Signal;HPM_P1;HPM_P2
2022/07/09 13:09:46;;;;;;;5.15;1.30;;;45.70;14.80;;;;;;5053444;28;20496;-74
2022/07/09 13:12:12;;;;;;;3.45;1.20;;;45.10;15.40;;;;;;5043977;28;20029;-73
2022/07/09 13:14:38;;;;;;;3.83;1.35;;;44.60;15.90;;;;;;5041593;28;20105;-71
2022/07/09 13:17:04;;;;;;;3.28;1.10;;;44.30;16.60;;;;;;5039647;28;20111;-74
2022/07/09 13:19:29;;;;;;;5.63;1.20;;;44.00;17.00;;;;;;5040571;28;20028;-74
2022/07/09 13:21:55;;;;;;;5.25;1.08;;;43.30;16.40;;;;;;5042600;28;20037;-72
2022/07/09 13:24:21;;;;;;;6.82;1.30;;;43.20;17.10;;;;;;5043737;28;20543;-72
2022/07/09 13:26:47;;;;;;;3.78;1.40;;;42.70;17.50;;;;;;5040239;28;20033;-72
2022/07/09 13:29:12;;;;;;;3.70;1.20;;;42.20;18.00;;;;;;5051109;28;20043;-73
2022/07/09 13:31:38;;;;;;;3.60;1.30;;;41.90;18.60;;;;;;5045633;28;20087;-72
2022/07/09 13:34:04;;;;;;;4.68;1.20;;;41.40;19.40;;;;;;5037494;28;20116;-73
2022/07/09 13:36:30;;;;;;;8.00;1.38;;;41.00;19.50;;;;;;5039399;28;20033;-73
2022/07/09 13:38:55;;;;;;;3.83;1.15;;;40.50;19.90;;;;;;5045047;28;20065;-72
2022/07/09 13:41:21;;;;;;;4.28;1.15;;;40.30;20.10;;;;;;5044514;28;20048;-72
2022/07/09 13:43:47;;;;;;;3.75;1.30;;;40.00;20.00;;;;;;5043523;28;20496;-73
2022/07/09 13:46:13;;;;;;;6.78;1.40;;;39.70;19.90;;;;;;5044610;28;20028;-74
2022/07/09 13:48:39;;;;;;;3.72;1.40;;;39.40;20.40;;;;;;5039050;28;20034;-73
2022/07/09 13:51:05;;;;;;;4.55;1.38;;;39.20;20.80;;;;;;5035561;28;20044;-72
2022/07/09 13:53:31;;;;;;;6.78;1.50;;;39.10;21.20;;;;;;5043059;28;20060;-73
2022/07/09 13:55:58;;;;;;;4.15;1.30;;;38.90;21.30;;;;;;5030370;28;20492;-73
2022/07/09 13:58:23;;;;;;;4.28;1.20;;;38.30;22.00;;;;;;5048010;28;20055;-72
2022/07/09 14:00:49;;;;;;;6.55;1.48;;;38.10;22.10;;;;;;5047018;28;20072;-72
2022/07/09 14:03:15;;;;;;;3.20;1.40;;;38.00;21.60;;;;;;5042890;28;20058;-74
2022/07/09 14:05:40;;;;;;;3.95;1.35;;;37.90;21.90;;;;;;5043503;28;20471;-74
2022/07/09 14:08:06;;;;;;;4.38;1.42;;;37.80;22.50;;;;;;5044050;28;20045;-72
2022/07/09 14:10:33;;;;;;;3.42;1.30;;;37.70;22.40;;;;;;5045844;28;20095;-72
2022/07/09 14:12:59;;;;;;;5.68;1.25;;;37.50;22.60;;;;;;5040525;28;20037;-72
2022/07/09 14:15:25;;;;;;;4.10;1.42;;;37.40;22.70;;;;;;5044056;28;20116;-72
2022/07/09 14:17:50;;;;;;;5.22;1.30;;;37.30;23.30;;;;;;5042620;28;20060;-73
2022/07/09 14:20:16;;;;;;;4.78;1.48;;;37.10;23.50;;;;;;5035170;28;20492;-74
2022/07/09 14:22:42;;;;;;;2.75;1.10;;;36.90;23.90;;;;;;5027763;28;20092;-72
2022/07/09 14:25:08;;;;;;;3.67;1.42;;;36.70;23.20;;;;;;5028523;28;20053;-74
2022/07/09 14:27:34;;;;;;;4.30;1.50;;;36.60;23.30;;;;;;5025093;28;20152;-73
2022/07/09 14:29:59;;;;;;;3.05;1.35;;;36.30;23.50;;;;;;5034227;28;20079;-72
2022/07/09 14:32:25;;;;;;;23.23;2.70;;;36.10;23.80;;;;;;5030135;28;20393;-72
2022/07/09 14:34:50;;;;;;;6.35;1.50;;;36.00;24.10;;;;;;5027931;28;20201;-71
2022/07/09 14:37:16;;;;;;;5.07;1.50;;;35.90;24.30;;;;;;5026427;28;20025;-72
2022/07/09 14:39:42;;;;;;;6.88;1.52;;;36.00;24.20;;;;;;5021581;28;20037;-74
2022/07/09 14:42:07;;;;;;;5.07;1.40;;;35.90;23.60;;;;;;5028522;28;20037;-73
2022/07/09 14:44:33;;;;;;;3.65;1.50;;;35.80;23.50;;;;;;5028599;28;20029;-72
2022/07/09 14:47:00;;;;;;;3.90;1.38;;;35.70;24.10;;;;;;5023366;28;20037;-72
2022/07/09 14:49:27;;;;;;;3.85;1.27;;;35.60;24.30;;;;;;5027874;28;20519;-72
2022/07/09 14:51:53;;;;;;;3.55;1.42;;;35.50;23.20;;;;;;5024646;28;20557;-73
2022/07/09 14:54:20;;;;;;;4.28;1.50;;;35.30;23.20;;;;;;5028943;28;20029;-73
2022/07/09 14:56:46;;;;;;;5.03;1.27;;;35.10;23.50;;;;;;5027826;28;20048;-73
2022/07/09 14:59:16;;;;;;;4.72;1.85;;;34.90;23.60;;;;;;5023607;28;20504;-72
2022/07/09 15:01:42;;;;;;;;;;;34.90;23.70;;;;;;5021568;28;20838;-72
2022/07/09 15:04:08;;;;;;;4.68;1.20;;;34.70;23.70;;;;;;5023980;28;19909;-71
2022/07/09 15:06:33;;;;;;;6.35;1.38;;;34.60;23.80;;;;;;5030373;28;20032;-72
2022/07/09 15:08:59;;;;;;;5.15;1.42;;;34.60;24.20;;;;;;5029521;28;20124;-71
2022/07/09 15:11:25;;;;;;;6.38;1.50;;;34.40;24.40;;;;;;5028073;28;20057;-72
2022/07/09 15:13:51;;;;;;;6.45;1.70;;;34.30;24.80;;;;;;5026391;28;20116;-73
2022/07/09 15:16:17;;;;;;;5.32;1.52;;;34.30;25.30;;;;;;5028530;28;20051;-71
2022/07/09 15:18:42;;;;;;;3.38;1.40;;;34.20;25.70;;;;;;5028979;28;20045;-71
2022/07/09 15:21:10;;;;;;;5.13;1.45;;;34.30;26.10;;;;;;5024899;28;20122;-70
2022/07/09 15:23:36;;;;;;;6.03;1.40;;;34.20;25.90;;;;;;5024079;28;20532;-71
2022/07/09 15:26:01;;;;;;;5.57;1.30;;;34.20;25.60;;;;;;5028507;28;20068;-72
2022/07/09 15:28:27;;;;;;;3.35;1.30;;;34.10;25.30;;;;;;5027763;28;20039;-73
2022/07/09 15:30:53;;;;;;;2.90;1.33;;;33.90;25.40;;;;;;5029110;28;20063;-72
2022/07/09 15:33:18;;;;;;;3.20;1.30;;;33.80;25.70;;;;;;5026851;28;20112;-70
2022/07/09 15:35:44;;;;;;;3.85;1.40;;;33.70;25.60;;;;;;5028511;28;20028;-73
2022/07/09 15:38:10;;;;;;;5.28;1.42;;;33.60;26.10;;;;;;5025625;28;20381;-71
2022/07/09 15:40:36;;;;;;;3.38;1.50;;;33.70;26.40;;;;;;5026047;28;20025;-73
2022/07/09 15:43:03;;;;;;;4.55;1.48;;;33.70;27.00;;;;;;5023322;28;20036;-71
2022/07/09 15:45:29;;;;;;;4.35;1.40;;;33.50;27.10;;;;;;5022128;28;20386;-72
2022/07/09 15:47:55;;;;;;;4.00;1.33;;;33.60;27.70;;;;;;5022312;28;20095;-72
2022/07/09 15:50:21;;;;;;;3.65;1.50;;;33.50;26.90;;;;;;5027522;28;20029;-72
2022/07/09 15:52:47;;;;;;;4.93;1.50;;;33.50;27.50;;;;;;5023401;28;20079;-71
2022/07/09 15:55:13;;;;;;;10.93;1.80;;;33.30;27.90;;;;;;5024346;28;20033;-72
2022/07/09 15:57:40;;;;;;;4.30;1.60;;;33.20;28.00;;;;;;5024293;28;20037;-74
2022/07/09 16:00:11;;;;;;;11.18;1.90;;;33.20;28.30;;;;;;5025524;28;20029;-72
2022/07/09 16:02:37;;;;;;;5.05;1.60;;;33.20;28.60;;;;;;5025185;28;20025;-73
2022/07/09 16:05:04;;;;;;;4.85;1.50;;;33.20;28.10;;;;;;5030781;28;20025;-75
2022/07/09 16:07:31;;;;;;;6.57;1.50;;;33.20;28.10;;;;;;5035529;28;20087;-73
2022/07/09 16:09:56;;;;;;;7.72;1.90;;;33.00;27.20;;;;;;5025060;28;20026;-71
2022/07/09 16:15:27;;;;;;;4.85;1.60;;;33.00;28.20;;;;;;4984303;28;20383;-74
2022/07/09 16:17:56;;;;;;;6.68;2.70;;;32.90;28.10;;;;;;4984170;28;20109;-72
2022/07/09 16:20:22;;;;;;;6.10;1.50;;;32.90;28.20;;;;;;4984512;28;20065;-72
2022/07/09 16:22:48;;;;;;;3.58;1.60;;;32.80;28.20;;;;;;4986672;28;20182;-72
2022/07/09 16:25:14;;;;;;;5.90;1.60;;;32.70;28.30;;;;;;4988232;28;20300;-72
2022/07/09 16:27:41;;;;;;;5.03;1.60;;;32.70;28.30;;;;;;4985222;28;20077;-72
2022/07/09 16:30:08;;;;;;;5.47;1.60;;;32.60;28.80;;;;;;4991211;28;20130;-74
2022/07/09 16:32:34;;;;;;;4.80;1.63;;;32.50;28.80;;;;;;4986292;28;20098;-73
2022/07/09 16:35:00;;;;;;;4.40;1.52;;;32.50;28.50;;;;;;4983863;28;20498;-72
2022/07/09 16:37:27;;;;;;;4.68;1.58;;;32.40;29.10;;;;;;4986840;28;20069;-72
2022/07/09 16:39:53;;;;;;;3.72;1.70;;;32.30;28.40;;;;;;4983914;28;20038;-73
2022/07/09 16:42:19;;;;;;;3.38;1.70;;;32.30;29.10;;;;;;4983990;28;20037;-72
2022/07/09 16:44:46;;;;;;;25.83;11.18;;;32.20;29.10;;;;;;4968174;28;20030;-74
2022/07/09 16:47:11;;;;;;;6.35;1.80;;;32.10;28.20;;;;;;5024107;28;20045;-72
2022/07/09 16:49:37;;;;;;;9.75;2.00;;;32.10;28.90;;;;;;5027969;28;20055;-72
2022/07/09 16:52:04;;;;;;;4.63;1.55;;;32.00;28.60;;;;;;5058198;28;20030;-74
2022/07/09 16:54:29;;;;;;;4.68;1.52;;;32.00;28.90;;;;;;5030773;28;20032;-73
2022/07/09 16:56:55;;;;;;;4.72;1.55;;;32.00;29.00;;;;;;5032201;28;20404;-73
2022/07/09 16:59:22;;;;;;;13.10;4.75;;;31.80;29.10;;;;;;5032224;28;20032;-74
2022/07/09 17:01:48;;;;;;;2.67;1.50;;;31.80;28.70;;;;;;5026744;28;20021;-72
2022/07/09 17:04:17;;;;;;;6.25;1.80;;;31.80;28.90;;;;;;5027919;28;20035;-72
2022/07/09 17:06:46;;;;;;;7.55;2.97;;;31.70;28.90;;;;;;5026849;28;20041;-72
2022/07/09 17:09:12;;;;;;;7.88;1.90;;;31.60;29.00;;;;;;5026117;28;20041;-72
2022/07/09 17:11:38;;;;;;;14.05;4.35;;;31.60;29.40;;;;;;5026349;28;20037;-72
2022/07/09 17:14:03;;;;;;;4.53;1.80;;;31.50;29.40;;;;;;5026978;28;20145;-73
2022/07/09 17:16:29;;;;;;;6.18;1.65;;;31.40;29.20;;;;;;5029786;28;20021;-73
2022/07/09 17:18:55;;;;;;;7.43;1.58;;;31.40;29.10;;;;;;5024504;28;20039;-73
2022/07/09 17:21:20;;;;;;;4.43;1.75;;;31.40;29.30;;;;;;5020399;28;20037;-74
2022/07/09 17:23:46;;;;;;;5.32;1.80;;;31.30;29.30;;;;;;5025948;28;20506;-72
2022/07/09 17:26:12;;;;;;;6.03;1.63;;;31.20;29.60;;;;;;5011034;28;20030;-72
2022/07/09 17:28:38;;;;;;;14.88;4.20;;;31.20;30.00;;;;;;5023966;28;20037;-74
2022/07/09 17:31:04;;;;;;;6.90;3.15;;;31.10;29.40;;;;;;5024772;28;20076;-73
2022/07/09 17:33:29;;;;;;;6.65;1.98;;;31.00;29.60;;;;;;5025423;28;20072;-73
2022/07/09 17:35:55;;;;;;;3.80;1.90;;;31.00;30.20;;;;;;5030383;28;20049;-72
2022/07/09 17:38:22;;;;;;;5.95;1.80;;;30.70;30.00;;;;;;5026002;28;20033;-73
2022/07/09 17:40:50;;;;;;;5.30;1.80;;;30.70;30.80;;;;;;5025902;28;20049;-72
2022/07/09 17:43:16;;;;;;;5.93;1.80;;;30.70;31.20;;;;;;5025551;28;20439;-72
2022/07/09 17:45:42;;;;;;;5.32;1.77;;;30.60;31.40;;;;;;5024222;28;20481;-72
2022/07/09 17:48:08;;;;;;;6.43;1.88;;;30.40;30.90;;;;;;5026907;28;20037;-73
2022/07/09 17:50:35;;;;;;;8.20;1.77;;;30.40;31.70;;;;;;5025151;28;20033;-73
2022/07/09 17:53:00;;;;;;;7.03;1.80;;;30.30;31.80;;;;;;5025902;28;20037;-72
2022/07/09 17:55:27;;;;;;;5.78;1.60;;;30.20;31.80;;;;;;5028858;28;20028;-73
2022/07/09 17:58:01;;;;;;;5.20;1.70;;;30.20;33.00;;;;;;5029036;28;20036;-73
2022/07/09 18:00:30;;;;;;;3.50;1.60;;;30.10;32.20;;;;;;5024888;28;20017;-73
2022/07/09 18:02:56;;;;;;;7.43;1.70;;;30.20;31.60;;;;;;5029794;28;20075;-72
2022/07/09 18:05:22;;;;;;;7.72;1.70;;;30.00;32.70;;;;;;5021881;28;20030;-72
2022/07/09 18:07:48;;;;;;;9.25;1.90;;;29.90;31.80;;;;;;5027266;28;20034;-73
2022/07/09 18:10:15;;;;;;;8.23;1.60;;;29.80;31.90;;;;;;5029904;28;20036;-72
2022/07/09 18:12:42;;;;;;;4.55;1.50;;;29.70;32.20;;;;;;5029567;28;20554;-74
2022/07/09 18:15:08;;;;;;;4.38;1.63;;;29.60;32.20;;;;;;5026743;28;20567;-73
2022/07/09 18:17:34;;;;;;;5.25;1.70;;;29.50;32.50;;;;;;5029034;28;20040;-75
2022/07/09 18:20:03;;;;;;;6.53;1.67;;;29.40;32.50;;;;;;5019778;28;20021;-73
2022/07/09 18:22:30;;;;;;;11.13;1.85;;;29.30;32.60;;;;;;5029116;28;20026;-73
2022/07/09 18:25:01;;;;;;;4.30;1.50;;;29.20;33.00;;;;;;5029715;28;20034;-73
2022/07/09 18:27:27;;;;;;;6.50;1.60;;;29.10;33.50;;;;;;5029361;28;20473;-73
2022/07/09 18:29:53;;;;;;;4.35;1.67;;;29.10;33.70;;;;;;5028550;28;20762;-72
2022/07/09 18:32:18;;;;;;;5.75;1.60;;;29.10;33.90;;;;;;5026579;28;20377;-71
2022/07/09 18:34:45;;;;;;;4.55;1.83;;;29.00;34.40;;;;;;5030537;28;20045;-73
2022/07/09 18:37:11;;;;;;;3.10;1.40;;;29.00;34.50;;;;;;5027443;28;20022;-73
2022/07/09 18:39:37;;;;;;;3.25;1.70;;;28.80;34.90;;;;;;5028851;28;20037;-75
2022/07/09 18:42:03;;;;;;;6.95;1.83;;;28.80;35.50;;;;;;5019451;28;20813;-72
2022/07/09 18:44:32;;;;;;;5.82;1.60;;;28.60;35.30;;;;;;5026709;28;20037;-73
2022/07/09 18:46:58;;;;;;;11.88;1.88;;;28.50;36.10;;;;;;5029145;28;20120;-74
2022/07/09 18:49:24;;;;;;;16.98;6.05;;;28.50;36.00;;;;;;5033295;28;20431;-74
2022/07/09 18:51:50;;;;;;;6.20;1.60;;;28.40;36.30;;;;;;5027458;28;20512;-73
2022/07/09 18:54:16;;;;;;;4.80;1.60;;;28.40;36.60;;;;;;5028576;28;20040;-73
2022/07/09 18:56:42;;;;;;;7.38;1.55;;;28.30;36.60;;;;;;5028832;28;20025;-73
2022/07/09 18:59:08;;;;;;;3.92;1.52;;;28.20;36.60;;;;;;5034380;28;20041;-72
2022/07/09 19:01:35;;;;;;;4.65;2.03;;;28.10;36.90;;;;;;5027554;28;20029;-73
2022/07/09 19:04:01;;;;;;;6.68;1.60;;;28.00;36.90;;;;;;5025951;28;20186;-73
2022/07/09 19:06:27;;;;;;;6.80;1.98;;;28.00;37.00;;;;;;5025061;28;20148;-72
2022/07/09 19:08:52;;;;;;;4.45;1.50;;;27.80;37.20;;;;;;5027617;28;20528;-70
2022/07/09 19:11:18;;;;;;;3.45;1.50;;;27.80;37.50;;;;;;5028277;28;20037;-74
2022/07/09 19:13:44;;;;;;;3.63;1.58;;;27.70;37.60;;;;;;5029359;28;20096;-74
2022/07/09 19:16:10;;;;;;;5.18;1.60;;;27.60;37.50;;;;;;5024841;28;20025;-72
2022/07/09 19:18:36;;;;;;;7.22;1.50;;;27.50;36.90;;;;;;5031678;28;20025;-73
2022/07/09 19:21:11;;;;;;;5.47;1.50;;;27.50;37.70;;;;;;5021374;28;20030;-73
2022/07/09 19:23:37;;;;;;;3.25;1.42;;;27.30;37.20;;;;;;5025580;28;20160;-74
2022/07/09 19:26:03;;;;;;;6.40;1.65;;;27.30;38.10;;;;;;5027822;28;20425;-73
2022/07/09 19:28:29;;;;;;;6.60;1.73;;;27.20;38.30;;;;;;5032257;28;20124;-73
2022/07/09 19:36:23;;;;;;;3.88;1.40;;;27.10;38.70;;;;;;5028217;28;20060;-73
2022/07/09 19:38:48;;;;;;;4.25;1.77;;;27.00;38.80;;;;;;5027805;28;20473;-73
2022/07/09 19:41:14;;;;;;;3.70;1.50;;;26.90;39.70;;;;;;5027147;28;20040;-73
2022/07/09 19:43:40;;;;;;;3.53;1.27;;;26.80;38.90;;;;;;5019296;28;20040;-73
2022/07/09 19:46:06;;;;;;;3.10;1.40;;;26.80;39.10;;;;;;5027880;28;20100;-73
2022/07/09 19:48:31;;;;;;;4.60;1.30;;;26.70;39.10;;;;;;5027971;28;20068;-73
2022/07/09 19:50:57;;;;;;;2.90;1.30;;;26.70;40.30;;;;;;5026783;28;20504;-73
2022/07/09 19:53:22;;;;;;;3.42;1.33;;;26.60;39.30;;;;;;5025303;28;20616;-73
2022/07/09 19:55:48;;;;;;;6.75;1.10;;;26.50;39.20;;;;;;5028315;28;20021;-73
2022/07/09 19:58:14;;;;;;;3.97;1.20;;;26.40;39.00;;;;;;5031036;28;20077;-73
2022/07/09 20:00:39;;;;;;;2.10;1.00;;;26.30;39.00;;;;;;5026310;28;20032;-73
2022/07/09 20:03:07;;;;;;;2.60;1.10;;;26.20;39.10;;;;;;5027367;28;20041;-73
2022/07/09 20:05:33;;;;;;;4.80;1.10;;;26.20;39.50;;;;;;5027997;28;20025;-73
2022/07/09 20:07:59;;;;;;;4.93;1.30;;;26.10;39.60;;;;;;5026518;28;20051;-72
2022/07/09 20:10:24;;;;;;;4.65;1.10;;;26.00;39.80;;;;;;5015737;28;20036;-71
2022/07/09 20:12:50;;;;;;;3.13;1.10;;;25.90;39.90;;;;;;5024350;28;20403;-71
2022/07/09 20:15:16;;;;;;;3.63;1.20;;;25.90;40.00;;;;;;5025109;28;20025;-70
2022/07/09 20:17:42;;;;;;;4.50;1.10;;;25.80;40.00;;;;;;5024256;28;20017;-71
2022/07/09 20:20:08;;;;;;;4.40;1.10;;;25.70;40.10;;;;;;5016440;28;20044;-70
2022/07/09 20:22:37;;;;;;;4.13;1.10;;;25.60;39.40;;;;;;5025250;28;20026;-72
2022/07/09 20:25:03;;;;;;;3.80;1.10;;;25.60;40.30;;;;;;5024303;28;20038;-70
2022/07/09 20:27:29;;;;;;;2.03;1.00;;;25.60;40.20;;;;;;5024232;28;20033;-70
2022/07/09 20:29:54;;;;;;;2.80;0.90;;;25.50;40.30;;;;;;5025292;28;20044;-70
2022/07/09 20:32:20;;;;;;;4.03;1.00;;;25.50;40.50;;;;;;5027279;28;20037;-70
2022/07/09 20:34:46;;;;;;;3.65;1.00;;;25.40;40.50;;;;;;5026857;28;20400;-70
2022/07/09 20:37:11;;;;;;;3.05;1.02;;;25.30;40.00;;;;;;5026334;28;20037;-70
2022/07/09 20:39:37;;;;;;;2.17;1.10;;;25.20;40.00;;;;;;5024641;28;20037;-70
2022/07/09 20:42:03;;;;;;;6.03;1.00;;;25.20;40.90;;;;;;5025219;28;20536;-70
2022/07/09 20:44:29;;;;;;;2.47;0.90;;;25.10;40.90;;;;;;5025470;28;20017;-70
2022/07/09 20:46:55;;;;;;;1.83;0.90;;;25.10;41.00;;;;;;5026584;28;20025;-70
2022/07/09 20:49:20;;;;;;;2.92;0.82;;;25.10;41.10;;;;;;5027917;28;20084;-70
2022/07/09 20:51:46;;;;;;;2.25;0.85;;;25.00;41.00;;;;;;5025582;28;20108;-70
2022/07/09 20:54:12;;;;;;;2.30;0.90;;;25.00;41.10;;;;;;5025726;28;20025;-70
2022/07/09 20:56:38;;;;;;;2.83;0.95;;;25.00;41.20;;;;;;5027307;28;20111;-70
2022/07/09 20:59:04;;;;;;;9.60;1.10;;;24.90;41.40;;;;;;5030280;28;22060;-70
2022/07/09 21:01:29;;;;;;;3.72;0.80;;;24.80;41.60;;;;;;5027383;28;20138;-70
2022/07/09 21:03:56;;;;;;;4.07;1.00;;;24.70;41.80;;;;;;5026096;28;20550;-70
2022/07/09 21:06:21;;;;;;;6.70;0.95;;;24.70;42.00;;;;;;5026890;28;20021;-70
2022/07/09 21:08:47;;;;;;;4.25;0.90;;;24.60;42.00;;;;;;5026861;28;20054;-70
2022/07/09 21:11:13;;;;;;;4.65;1.00;;;24.60;42.10;;;;;;5026218;28;20030;-70
2022/07/09 21:13:39;;;;;;;1.75;0.80;;;24.50;41.70;;;;;;5020498;28;20029;-70
2022/07/09 21:16:04;;;;;;;3.70;0.90;;;24.50;42.50;;;;;;5025397;28;20053;-70
2022/07/09 21:21:18;;;;;;;3.67;0.70;;;24.30;43.00;;;;;;5023303;28;20032;-70
2022/07/09 21:23:44;;;;;;;1.73;0.73;;;24.20;42.80;;;;;;5024201;28;20029;-70
2022/07/09 21:26:10;;;;;;;2.45;0.80;;;24.20;43.50;;;;;;5025401;28;20504;-70
2022/07/09 21:28:37;;;;;;;3.03;0.80;;;24.10;42.80;;;;;;5032011;28;20045;-70
2022/07/09 21:31:07;;;;;;;2.80;0.88;;;24.10;43.60;;;;;;5029380;28;20060;-70
2022/07/09 21:33:33;;;;;;;3.45;0.95;;;24.10;43.70;;;;;;5030011;28;20473;-70
2022/07/09 21:35:59;;;;;;;3.72;0.80;;;24.00;43.70;;;;;;5029305;28;20411;-70
2022/07/09 21:38:25;;;;;;;2.17;0.70;;;23.90;43.10;;;;;;5030017;28;20520;-70
2022/07/09 21:40:51;;;;;;;2.58;0.90;;;23.90;43.90;;;;;;5030043;28;20032;-70
2022/07/09 21:43:17;;;;;;;7.30;4.38;;;23.90;44.00;;;;;;5031803;28;20410;-70
2022/07/09 21:45:43;;;;;;;4.88;1.17;;;23.90;44.10;;;;;;5027819;28;20034;-70
2022/07/09 21:48:09;;;;;;;3.28;1.02;;;23.90;44.30;;;;;;5031138;28;20044;-70
2022/07/09 21:50:35;;;;;;;4.68;0.90;;;23.70;43.90;;;;;;5029761;28;20065;-70
2022/07/09 21:53:00;;;;;;;3.25;1.00;;;23.70;44.90;;;;;;5028880;28;20544;-70
2022/07/09 21:55:26;;;;;;;3.78;1.02;;;23.70;45.10;;;;;;5031258;28;20108;-70
2022/07/09 21:57:52;;;;;;;2.35;0.95;;;23.60;45.40;;;;;;5029429;28;20029;-70
2022/07/09 22:00:23;;;;;;;4.45;1.20;;;23.60;45.50;;;;;;5030758;28;20033;-70
2022/07/09 22:02:49;;;;;;;3.42;1.00;;;23.50;45.60;;;;;;5026896;28;20022;-70
2022/07/09 22:05:15;;;;;;;2.15;1.00;;;23.50;45.80;;;;;;5028385;28;20075;-70
2022/07/09 22:07:41;;;;;;;3.97;0.98;;;23.40;45.90;;;;;;5030975;28;20029;-70
2022/07/09 22:10:08;;;;;;;1.92;0.90;;;23.40;46.00;;;;;;5030056;28;20489;-70
2022/07/09 22:12:34;;;;;;;3.65;1.00;;;23.30;46.10;;;;;;5029636;28;20436;-70
2022/07/09 22:15:02;;;;;;;2.35;1.00;;;23.30;46.20;;;;;;5027165;28;20037;-70
2022/07/09 22:17:30;;;;;;;3.40;1.13;;;23.30;45.60;;;;;;5026458;28;20673;-70
2022/07/09 22:19:56;;;;;;;6.30;1.20;;;23.30;46.60;;;;;;5025518;28;20048;-70
2022/07/09 22:22:22;;;;;;;2.90;1.00;;;23.20;46.80;;;;;;5030306;28;20754;-70
2022/07/09 22:24:47;;;;;;;3.97;1.20;;;23.20;46.90;;;;;;5022090;28;20131;-70
2022/07/09 22:27:13;;;;;;;2.63;1.00;;;23.10;47.00;;;;;;5025883;28;20026;-70
2022/07/09 22:29:39;;;;;;;5.35;1.63;;;23.10;47.20;;;;;;5031687;28;20551;-70
2022/07/09 22:32:04;;;;;;;3.08;1.00;;;23.10;47.30;;;;;;5028347;28;20575;-71
2022/07/09 22:34:30;;;;;;;5.30;1.02;;;23.10;47.50;;;;;;5029375;28;20044;-70
2022/07/09 22:36:56;;;;;;;2.95;1.00;;;23.10;47.60;;;;;;5026796;28;20443;-70
2022/07/09 22:39:21;;;;;;;3.53;1.02;;;23.00;47.70;;;;;;5028758;28;20033;-70
2022/07/09 22:41:47;;;;;;;3.28;1.15;;;23.00;47.90;;;;;;5025207;28;20022;-70
2022/07/09 22:44:13;;;;;;;2.35;1.00;;;22.90;48.20;;;;;;5018488;28;20197;-70
2022/07/09 22:46:40;;;;;;;2.08;1.00;;;22.90;48.50;;;;;;5028181;28;20057;-71
2022/07/09 22:49:06;;;;;;;2.40;1.02;;;22.80;48.70;;;;;;5029195;28;20045;-70
2022/07/09 22:51:32;;;;;;;2.22;1.00;;;22.80;49.00;;;;;;5028912;28;20022;-70
2022/07/09 22:53:57;;;;;;;3.72;1.27;;;22.80;49.20;;;;;;5028296;28;20033;-70
2022/07/09 22:56:23;;;;;;;2.50;1.10;;;22.70;49.40;;;;;;5024971;28;20017;-70
2022/07/09 22:58:49;;;;;;;3.20;1.10;;;22.70;49.00;;;;;;5028264;28;20079;-70
2022/07/09 23:01:14;;;;;;;2.78;1.08;;;22.60;49.80;;;;;;5029688;28;20029;-70
2022/07/09 23:03:40;;;;;;;4.65;1.10;;;22.60;50.10;;;;;;5028783;28;20397;-70
2022/07/09 23:06:06;;;;;;;2.83;1.10;;;22.60;50.40;;;;;;5028066;28;20053;-70
2022/07/09 23:11:15;;;;;;;3.20;1.20;;;22.50;50.80;;;;;;5018881;28;20550;-72
2022/07/09 23:13:42;;;;;;;4.75;1.33;;;22.40;50.80;;;;;;5027988;28;20029;-71
2022/07/09 23:16:07;;;;;;;4.30;1.30;;;22.50;51.20;;;;;;5028499;28;20029;-71
2022/07/09 23:18:33;;;;;;;2.90;1.40;;;22.40;51.50;;;;;;5027398;28;20053;-70
2022/07/09 23:20:59;;;;;;;2.42;1.20;;;22.30;51.80;;;;;;5026056;28;20021;-71
2022/07/09 23:23:25;;;;;;;3.47;1.30;;;22.30;52.30;;;;;;5026190;28;20018;-71
2022/07/09 23:25:51;;;;;;;6.35;1.85;;;22.20;52.40;;;;;;5023778;28;20053;-71
2022/07/09 23:28:17;;;;;;;4.35;1.25;;;22.20;52.50;;;;;;5042365;28;20079;-71
2022/07/09 23:30:42;;;;;;;2.65;1.20;;;22.10;52.50;;;;;;5027113;28;20437;-71
2022/07/09 23:33:08;;;;;;;3.45;1.33;;;22.20;52.80;;;;;;5024738;28;20479;-71
2022/07/09 23:35:34;;;;;;;3.03;1.45;;;22.10;52.90;;;;;;5028275;28;20088;-71
2022/07/09 23:38:00;;;;;;;3.60;1.40;;;22.10;53.10;;;;;;5028362;28;20030;-71
2022/07/09 23:40:25;;;;;;;2.70;1.27;;;22.00;52.50;;;;;;5029224;28;20029;-71
2022/07/09 23:42:51;;;;;;;3.45;1.40;;;22.00;53.40;;;;;;5021388;28;20029;-71
2022/07/09 23:45:17;;;;;;;2.33;1.30;;;22.00;53.40;;;;;;5023536;28;20036;-71
2022/07/09 23:47:42;;;;;;;4.05;1.38;;;22.00;53.40;;;;;;5022082;28;20036;-71
2022/07/09 23:50:08;;;;;;;3.13;1.40;;;22.00;53.50;;;;;;5013844;28;20037;-71
2022/07/09 23:52:34;;;;;;;3.83;1.35;;;22.00;53.50;;;;;;5028005;28;20043;-71
2022/07/09 23:55:00;;;;;;;4.13;1.42;;;22.00;53.40;;;;;;5026631;28;20476;-71
2022/07/09 23:57:25;;;;;;;3.08;1.23;;;22.00;53.50;;;;;;5018401;28;20009;-71
2022/07/09 23:59:51;;;;;;;4.07;1.30;;;22.00;53.60;;;;;;5030427;28;20033;-71
